TVF80MB LFPO-LEMH
Flight info
| Callsign | TVF80MB |
|---|---|
| Flight time | 1h 31m |
| Altitude | 37000 |
| Route | ERIXU DCT ETAMO DCT ADEKA DCT MOKDI DCT MEN DCT BADAM DCT KANIG DCT BGR DCT DALIN DCT AGENA DCT VERSO DCT TOSNU L16 SARGO |
| Aircraft | B738/M-SDE2E3FGHIRWXY/LB1 |
Departure
| Time | 2026-05-04 10:00 |
|---|---|
| Airport | Paris-Orly Airport (LFPO) |
Arrival
| Time | 2026-05-04 11:31 |
|---|---|
| Airport | Menorca Airport (LEMH) |
| Time | Latitude | Longitude | Altitude | Speed | Heading |
|---|---|---|---|---|---|
| 2026-05-04 09:17 | 48.72439 | 2.36693 | 293 ft | 0 kts | 201° |
| 2026-05-04 09:46 | 48.72494 | 2.36728 | 293 ft | 4 kts | 210° |
| 2026-05-04 09:46 | 48.72515 | 2.36752 | 296 ft | 4 kts | 234° |
| 2026-05-04 09:46 | 48.72522 | 2.36771 | 293 ft | 0 kts | 255° |
| 2026-05-04 09:53 | 48.72518 | 2.36747 | 295 ft | 5 kts | 254° |
| 2026-05-04 09:53 | 48.72505 | 2.36678 | 290 ft | 7 kts | 254° |
| 2026-05-04 09:53 | 48.72492 | 2.36606 | 291 ft | 7 kts | 255° |
| 2026-05-04 09:53 | 48.72479 | 2.36536 | 290 ft | 7 kts | 254° |
| 2026-05-04 09:54 | 48.72466 | 2.36468 | 290 ft | 7 kts | 254° |
| 2026-05-04 09:54 | 48.72453 | 2.36400 | 292 ft | 7 kts | 254° |
| 2026-05-04 09:54 | 48.72441 | 2.36335 | 294 ft | 6 kts | 254° |
| 2026-05-04 09:54 | 48.72429 | 2.36270 | 295 ft | 6 kts | 255° |
| 2026-05-04 09:55 | 48.72418 | 2.36206 | 290 ft | 6 kts | 255° |
| 2026-05-04 09:55 | 48.72406 | 2.36143 | 291 ft | 6 kts | 255° |
| 2026-05-04 09:55 | 48.72394 | 2.36075 | 290 ft | 10 kts | 255° |
| 2026-05-04 09:55 | 48.72370 | 2.35943 | 295 ft | 15 kts | 254° |
| 2026-05-04 09:56 | 48.72342 | 2.35792 | 296 ft | 15 kts | 255° |
| 2026-05-04 09:56 | 48.72324 | 2.35695 | 293 ft | 14 kts | 249° |
| 2026-05-04 09:56 | 48.72222 | 2.35608 | 292 ft | 13 kts | 173° |
| 2026-05-04 09:56 | 48.72162 | 2.35627 | 292 ft | 13 kts | 166° |
| 2026-05-04 09:57 | 48.72079 | 2.35674 | 291 ft | 13 kts | 149° |
| 2026-05-04 09:57 | 48.72022 | 2.35772 | 290 ft | 12 kts | 123° |
| 2026-05-04 09:57 | 48.71981 | 2.35884 | 291 ft | 12 kts | 118° |
| 2026-05-04 09:57 | 48.71968 | 2.35987 | 291 ft | 5 kts | 76° |
| 2026-05-04 09:58 | 48.71974 | 2.36026 | 295 ft | 2 kts | 77° |
| 2026-05-04 09:58 | 48.71977 | 2.36045 | 292 ft | 2 kts | 77° |
| 2026-05-04 09:58 | 48.71980 | 2.36063 | 292 ft | 2 kts | 76° |
| 2026-05-04 10:00 | 48.73406 | 2.43636 | 2603 ft | 180 kts | 76° |
| 2026-05-04 10:00 | 48.73759 | 2.45582 | 3065 ft | 205 kts | 76° |
| 2026-05-04 10:02 | 48.70807 | 2.60821 | 7735 ft | 257 kts | 168° |
| 2026-05-04 10:04 | 48.59022 | 2.53784 | 12350 ft | 324 kts | 233° |
| 2026-05-04 10:04 | 48.57656 | 2.51077 | 13245 ft | 328 kts | 231° |
| 2026-05-04 10:04 | 48.56183 | 2.48324 | 13590 ft | 347 kts | 230° |
| 2026-05-04 10:04 | 48.54596 | 2.45441 | 13765 ft | 368 kts | 230° |
| 2026-05-04 10:05 | 48.52908 | 2.42420 | 14131 ft | 381 kts | 227° |
| 2026-05-04 10:05 | 48.50844 | 2.39909 | 14750 ft | 384 kts | 210° |
| 2026-05-04 10:05 | 48.48524 | 2.37924 | 15542 ft | 383 kts | 209° |
| 2026-05-04 10:05 | 48.46197 | 2.35939 | 16215 ft | 386 kts | 209° |
| 2026-05-04 10:06 | 48.43854 | 2.33916 | 16868 ft | 390 kts | 209° |
| 2026-05-04 10:06 | 48.41501 | 2.31863 | 17534 ft | 392 kts | 210° |
| 2026-05-04 10:06 | 48.39137 | 2.29787 | 18217 ft | 394 kts | 210° |
| 2026-05-04 10:08 | 48.23957 | 2.22022 | 21845 ft | 411 kts | 172° |
| 2026-05-04 10:08 | 48.21121 | 2.22771 | 22227 ft | 417 kts | 172° |
| 2026-05-04 10:08 | 48.18257 | 2.23536 | 22641 ft | 420 kts | 172° |
| 2026-05-04 10:08 | 48.15359 | 2.24281 | 23065 ft | 424 kts | 173° |
| 2026-05-04 10:09 | 48.12444 | 2.25001 | 23651 ft | 422 kts | 173° |
| 2026-05-04 10:09 | 48.09545 | 2.25704 | 24156 ft | 421 kts | 173° |
| 2026-05-04 10:09 | 48.06650 | 2.26294 | 24649 ft | 419 kts | 177° |
| 2026-05-04 10:09 | 48.03737 | 2.26583 | 25055 ft | 420 kts | 179° |
| 2026-05-04 10:10 | 48.00806 | 2.26732 | 25428 ft | 422 kts | 180° |
| 2026-05-04 10:10 | 47.97870 | 2.26840 | 25800 ft | 423 kts | 180° |
| 2026-05-04 10:10 | 47.94916 | 2.26956 | 26172 ft | 425 kts | 180° |
| 2026-05-04 10:10 | 47.91954 | 2.27093 | 26536 ft | 426 kts | 180° |
| 2026-05-04 10:11 | 47.88982 | 2.27251 | 26893 ft | 428 kts | 180° |
| 2026-05-04 10:11 | 47.86048 | 2.27423 | 27232 ft | 429 kts | 179° |
| 2026-05-04 10:11 | 47.83057 | 2.27607 | 27555 ft | 431 kts | 179° |
| 2026-05-04 10:11 | 47.80059 | 2.27797 | 27869 ft | 432 kts | 179° |
| 2026-05-04 10:12 | 47.77050 | 2.27989 | 28217 ft | 433 kts | 179° |
| 2026-05-04 10:12 | 47.74051 | 2.28181 | 28679 ft | 431 kts | 179° |
| 2026-05-04 10:12 | 47.71069 | 2.28373 | 29245 ft | 427 kts | 179° |
| 2026-05-04 10:12 | 47.68116 | 2.28561 | 29787 ft | 424 kts | 180° |
| 2026-05-04 10:13 | 47.65179 | 2.28748 | 30213 ft | 422 kts | 180° |
| 2026-05-04 10:13 | 47.62253 | 2.28933 | 30552 ft | 421 kts | 180° |
| 2026-05-04 10:13 | 47.59318 | 2.29118 | 30892 ft | 421 kts | 180° |
| 2026-05-04 10:13 | 47.56395 | 2.29302 | 31242 ft | 420 kts | 180° |
| 2026-05-04 10:14 | 47.53482 | 2.29485 | 31620 ft | 418 kts | 180° |
| 2026-05-04 10:14 | 47.50581 | 2.29667 | 31958 ft | 417 kts | 180° |
| 2026-05-04 10:16 | 47.30433 | 2.30929 | 34170 ft | 412 kts | 180° |
| 2026-05-04 10:16 | 47.27561 | 2.31107 | 34358 ft | 413 kts | 180° |
| 2026-05-04 10:16 | 47.24682 | 2.31286 | 34548 ft | 414 kts | 180° |
| 2026-05-04 10:16 | 47.21802 | 2.31465 | 34764 ft | 415 kts | 180° |
| 2026-05-04 10:17 | 47.18917 | 2.31644 | 34972 ft | 415 kts | 180° |
| 2026-05-04 10:17 | 47.16078 | 2.31821 | 35171 ft | 416 kts | 180° |
| 2026-05-04 10:19 | 46.95763 | 2.33077 | 36482 ft | 420 kts | 180° |
| 2026-05-04 10:19 | 46.92829 | 2.33257 | 36675 ft | 420 kts | 180° |
| 2026-05-04 10:19 | 46.89907 | 2.33437 | 36843 ft | 421 kts | 180° |
| 2026-05-04 10:19 | 46.86988 | 2.33810 | 36950 ft | 424 kts | 173° |
| 2026-05-04 10:20 | 46.81324 | 2.36471 | 36965 ft | 433 kts | 158° |
| 2026-05-04 10:20 | 46.76164 | 2.41077 | 36958 ft | 434 kts | 151° |
| 2026-05-04 10:21 | 46.71159 | 2.45951 | 36961 ft | 431 kts | 151° |
| 2026-05-04 10:21 | 46.66186 | 2.50746 | 36973 ft | 427 kts | 152° |
| 2026-05-04 10:22 | 46.58638 | 2.57910 | 36988 ft | 437 kts | 152° |
| 2026-05-04 10:23 | 46.53520 | 2.62743 | 36973 ft | 439 kts | 152° |
| 2026-05-04 10:25 | 46.32984 | 2.82037 | 36977 ft | 438 kts | 152° |
| 2026-05-04 10:25 | 46.27875 | 2.86809 | 36980 ft | 437 kts | 152° |
| 2026-05-04 10:26 | 46.22776 | 2.91560 | 36982 ft | 436 kts | 152° |
| 2026-05-04 10:26 | 46.17686 | 2.96293 | 36980 ft | 435 kts | 152° |
| 2026-05-04 10:27 | 46.12602 | 3.01010 | 36980 ft | 434 kts | 152° |
| 2026-05-04 10:27 | 46.07561 | 3.05677 | 36983 ft | 434 kts | 152° |
| 2026-05-04 10:28 | 46.02483 | 3.10369 | 36994 ft | 434 kts | 153° |
| 2026-05-04 10:28 | 45.97377 | 3.15005 | 36980 ft | 431 kts | 157° |
| 2026-05-04 10:29 | 45.91797 | 3.17689 | 36993 ft | 420 kts | 175° |
| 2026-05-04 10:29 | 45.86014 | 3.18027 | 36996 ft | 415 kts | 184° |
| 2026-05-04 10:30 | 45.80232 | 3.17874 | 37000 ft | 416 kts | 184° |
| 2026-05-04 10:30 | 45.74422 | 3.17744 | 36995 ft | 418 kts | 184° |
| 2026-05-04 10:31 | 45.68587 | 3.17651 | 36994 ft | 420 kts | 184° |
| 2026-05-04 10:32 | 45.48130 | 3.17383 | 36980 ft | 420 kts | 184° |
| 2026-05-04 10:33 | 45.42291 | 3.17307 | 36978 ft | 419 kts | 184° |
| 2026-05-04 10:33 | 45.36464 | 3.17231 | 36986 ft | 418 kts | 184° |
| 2026-05-04 10:34 | 45.30645 | 3.17154 | 36985 ft | 418 kts | 184° |
| 2026-05-04 10:34 | 45.24795 | 3.17077 | 36971 ft | 417 kts | 184° |
| 2026-05-04 10:35 | 45.19036 | 3.17003 | 36999 ft | 416 kts | 184° |
| 2026-05-04 10:35 | 45.13210 | 3.16927 | 36992 ft | 415 kts | 185° |
| 2026-05-04 10:36 | 45.07436 | 3.16852 | 36996 ft | 415 kts | 185° |
| 2026-05-04 10:36 | 45.01670 | 3.16777 | 36989 ft | 414 kts | 185° |
| 2026-05-04 10:37 | 44.95902 | 3.16703 | 37009 ft | 415 kts | 185° |
| 2026-05-04 10:37 | 44.90145 | 3.16621 | 37013 ft | 418 kts | 184° |
| 2026-05-04 10:39 | 44.69774 | 3.16328 | 37010 ft | 419 kts | 184° |
| 2026-05-04 10:40 | 44.63945 | 3.16245 | 37010 ft | 419 kts | 184° |
| 2026-05-04 10:40 | 44.58119 | 3.16200 | 37011 ft | 419 kts | 184° |
| 2026-05-04 10:41 | 44.52276 | 3.16311 | 37018 ft | 420 kts | 183° |
| 2026-05-04 10:41 | 44.46432 | 3.16439 | 37005 ft | 420 kts | 183° |
| 2026-05-04 10:42 | 44.40583 | 3.16550 | 37010 ft | 420 kts | 184° |
| 2026-05-04 10:42 | 44.34733 | 3.16653 | 37005 ft | 421 kts | 184° |
| 2026-05-04 10:43 | 44.28876 | 3.16752 | 37005 ft | 420 kts | 184° |
| 2026-05-04 10:45 | 44.06551 | 3.16949 | 37005 ft | 415 kts | 188° |
| 2026-05-04 10:45 | 44.00811 | 3.16268 | 37006 ft | 413 kts | 189° |
| 2026-05-04 10:46 | 43.95090 | 3.15521 | 36998 ft | 413 kts | 189° |
| 2026-05-04 10:46 | 43.89362 | 3.14805 | 36999 ft | 413 kts | 189° |
| 2026-05-04 10:47 | 43.83642 | 3.14113 | 36999 ft | 413 kts | 189° |
| 2026-05-04 10:47 | 43.77913 | 3.13430 | 37005 ft | 413 kts | 189° |
| 2026-05-04 10:49 | 43.55042 | 3.10721 | 36984 ft | 412 kts | 189° |
| 2026-05-04 10:50 | 43.49362 | 3.10051 | 36981 ft | 412 kts | 189° |
| 2026-05-04 10:52 | 43.26418 | 3.07356 | 36983 ft | 416 kts | 190° |
| 2026-05-04 10:52 | 43.20651 | 3.06682 | 36987 ft | 416 kts | 190° |
| 2026-05-04 10:54 | 42.97540 | 3.03996 | 36830 ft | 415 kts | 191° |
| 2026-05-04 10:56 | 42.78062 | 3.01746 | 36968 ft | 400 kts | 191° |
| 2026-05-04 10:56 | 42.75291 | 3.01426 | 36966 ft | 400 kts | 191° |
| 2026-05-04 10:57 | 42.69740 | 3.00788 | 36964 ft | 401 kts | 191° |
| 2026-05-04 10:57 | 42.64184 | 3.00150 | 36960 ft | 401 kts | 191° |
| 2026-05-04 10:58 | 42.58616 | 2.99513 | 36960 ft | 402 kts | 191° |
| 2026-05-04 10:58 | 42.53045 | 2.98876 | 36955 ft | 402 kts | 191° |
| 2026-05-04 10:59 | 42.47433 | 2.98919 | 36950 ft | 414 kts | 180° |
| 2026-05-04 10:59 | 42.41772 | 3.00849 | 36944 ft | 423 kts | 171° |
| 2026-05-04 11:00 | 42.36193 | 3.03297 | 36938 ft | 420 kts | 171° |
| 2026-05-04 11:02 | 42.14161 | 3.12720 | 36937 ft | 413 kts | 172° |
| 2026-05-04 11:05 | 41.73370 | 3.35820 | 35597 ft | 433 kts | 162° |
| 2026-05-04 11:06 | 41.70696 | 3.37676 | 34947 ft | 433 kts | 162° |
| 2026-05-04 11:06 | 41.68013 | 3.39538 | 34311 ft | 434 kts | 161° |
| 2026-05-04 11:06 | 41.65330 | 3.41398 | 33597 ft | 435 kts | 161° |
| 2026-05-04 11:06 | 41.62641 | 3.43262 | 32845 ft | 436 kts | 161° |
| 2026-05-04 11:08 | 41.43785 | 3.56264 | 28279 ft | 426 kts | 159° |
| 2026-05-04 11:10 | 41.25826 | 3.68537 | 24572 ft | 405 kts | 158° |
| 2026-05-04 11:12 | 41.08043 | 3.78365 | 20751 ft | 385 kts | 168° |
| 2026-05-04 11:12 | 41.05497 | 3.79256 | 20246 ft | 382 kts | 168° |
| 2026-05-04 11:12 | 41.02939 | 3.80174 | 19751 ft | 380 kts | 167° |
| 2026-05-04 11:12 | 41.00365 | 3.81105 | 19248 ft | 377 kts | 167° |
| 2026-05-04 11:13 | 40.97873 | 3.82009 | 18804 ft | 376 kts | 168° |
| 2026-05-04 11:13 | 40.95348 | 3.82922 | 18256 ft | 376 kts | 168° |
| 2026-05-04 11:13 | 40.92791 | 3.83846 | 17686 ft | 375 kts | 168° |
| 2026-05-04 11:13 | 40.90286 | 3.84751 | 17158 ft | 372 kts | 168° |
| 2026-05-04 11:14 | 40.89476 | 3.85043 | 16991 ft | 371 kts | 168° |
| 2026-05-04 11:14 | 40.84534 | 3.86826 | 16007 ft | 365 kts | 168° |
| 2026-05-04 11:16 | 40.66250 | 3.93393 | 12283 ft | 346 kts | 167° |
| 2026-05-04 11:16 | 40.63940 | 3.94220 | 11814 ft | 343 kts | 167° |
| 2026-05-04 11:16 | 40.61653 | 3.95039 | 11355 ft | 340 kts | 167° |
| 2026-05-04 11:17 | 40.59380 | 3.95851 | 10890 ft | 337 kts | 167° |
| 2026-05-04 11:17 | 40.57148 | 3.96650 | 10719 ft | 326 kts | 167° |
| 2026-05-04 11:19 | 40.43440 | 4.01534 | 9609 ft | 268 kts | 168° |
| 2026-05-04 11:19 | 40.41644 | 4.02170 | 9354 ft | 267 kts | 168° |
| 2026-05-04 11:19 | 40.39849 | 4.02805 | 9059 ft | 268 kts | 168° |
| 2026-05-04 11:19 | 40.38046 | 4.03443 | 8762 ft | 269 kts | 167° |
| 2026-05-04 11:20 | 40.36263 | 4.04075 | 8457 ft | 268 kts | 168° |
| 2026-05-04 11:20 | 40.34465 | 4.04711 | 8157 ft | 267 kts | 168° |
| 2026-05-04 11:20 | 40.32681 | 4.05343 | 7878 ft | 265 kts | 167° |
| 2026-05-04 11:20 | 40.30909 | 4.05970 | 7595 ft | 263 kts | 168° |
| 2026-05-04 11:22 | 40.18747 | 4.10264 | 5610 ft | 255 kts | 167° |
| 2026-05-04 11:22 | 40.17039 | 4.10867 | 5337 ft | 253 kts | 167° |
| 2026-05-04 11:23 | 40.15342 | 4.11464 | 5048 ft | 252 kts | 167° |
| 2026-05-04 11:23 | 40.13653 | 4.12059 | 4786 ft | 251 kts | 167° |
| 2026-05-04 11:24 | 40.07992 | 4.20461 | 3365 ft | 225 kts | 88° |
| 2026-05-04 11:25 | 40.08039 | 4.22443 | 3233 ft | 211 kts | 99° |
| 2026-05-04 11:25 | 40.07574 | 4.24134 | 3149 ft | 189 kts | 130° |
| 2026-05-04 11:25 | 40.06610 | 4.25119 | 3056 ft | 172 kts | 171° |
| 2026-05-04 11:26 | 40.04179 | 4.25227 | 2865 ft | 178 kts | 184° |
| 2026-05-04 11:27 | 39.96545 | 4.23987 | 2054 ft | 145 kts | 190° |
| 2026-05-04 11:28 | 39.95557 | 4.23784 | 1954 ft | 144 kts | 191° |
| 2026-05-04 11:28 | 39.94577 | 4.23582 | 1773 ft | 140 kts | 190° |
| 2026-05-04 11:28 | 39.93632 | 4.23387 | 1563 ft | 137 kts | 189° |
| 2026-05-04 11:28 | 39.92679 | 4.23229 | 1382 ft | 137 kts | 190° |
| 2026-05-04 11:29 | 39.91739 | 4.23029 | 1204 ft | 140 kts | 191° |
| 2026-05-04 11:29 | 39.90771 | 4.22809 | 1147 ft | 141 kts | 191° |
| 2026-05-04 11:29 | 39.89784 | 4.22578 | 943 ft | 146 kts | 190° |
| 2026-05-04 11:29 | 39.88796 | 4.22383 | 697 ft | 142 kts | 187° |
| 2026-05-04 11:31 | 39.85414 | 4.21854 | 282 ft | 9 kts | 135° |
| 2026-05-04 11:33 | 39.85753 | 4.21998 | 291 ft | 7 kts | 11° |
| 2026-05-04 11:33 | 39.85786 | 4.22006 | 297 ft | 7 kts | 10° |
| 2026-05-04 11:33 | 39.85834 | 4.22017 | 294 ft | 7 kts | 9° |
| 2026-05-04 11:34 | 39.85881 | 4.22026 | 297 ft | 7 kts | 8° |
| 2026-05-04 11:34 | 39.85928 | 4.22035 | 297 ft | 7 kts | 8° |
| 2026-05-04 11:34 | 39.85973 | 4.22045 | 295 ft | 7 kts | 9° |
| 2026-05-04 11:34 | 39.86030 | 4.22057 | 295 ft | 11 kts | 9° |
| 2026-05-04 11:35 | 39.86112 | 4.22074 | 294 ft | 12 kts | 7° |
| 2026-05-04 11:35 | 39.86185 | 4.22108 | 292 ft | 11 kts | 62° |
| 2026-05-04 11:35 | 39.86184 | 4.22220 | 288 ft | 13 kts | 88° |
| 2026-05-04 11:35 | 39.86259 | 4.22274 | 287 ft | 13 kts | 9° |
| 2026-05-04 11:36 | 39.86349 | 4.22292 | 287 ft | 13 kts | 9° |
| 2026-05-04 11:36 | 39.86417 | 4.22306 | 287 ft | 1 kts | 8° |
| 2026-05-04 11:36 | 39.86427 | 4.22314 | 291 ft | 2 kts | 47° |
| 2026-05-04 11:36 | 39.86430 | 4.22345 | 286 ft | 4 kts | 92° |
| 2026-05-04 11:37 | 39.86426 | 4.22381 | 285 ft | 3 kts | 98° |
| 2026-05-04 11:37 | 39.86425 | 4.22391 | 285 ft | 1 kts | 98° |
| 2026-05-04 11:37 | 39.86425 | 4.22392 | 285 ft | 0 kts | 98° |